createdAt,value
2019-05-18T00:00:10.044Z,0.00
2019-05-18T00:01:09.999Z,0.00
2019-05-18T00:02:09.990Z,0.00
2019-05-18T00:03:09.979Z,0.00
2019-05-18T00:04:09.967Z,0.00
2019-05-18T00:05:09.990Z,0.00
2019-05-18T00:06:09.952Z,0.00
2019-05-18T00:07:09.933Z,0.00
2019-05-18T00:08:09.922Z,0.00
2019-05-18T00:09:09.912Z,0.00
2019-05-18T00:10:09.900Z,0.00
2019-05-18T00:11:09.942Z,0.00
2019-05-18T00:12:09.889Z,0.00
2019-05-18T00:13:09.868Z,0.00
2019-05-18T00:14:09.856Z,0.00
2019-05-18T00:15:09.845Z,0.00
2019-05-18T00:16:09.837Z,0.00
2019-05-18T00:17:24.498Z,0.00
2019-05-18T00:18:10.837Z,0.00
2019-05-18T00:19:09.804Z,0.00
2019-05-18T00:20:09.790Z,0.00
2019-05-18T00:21:09.782Z,0.00
2019-05-18T00:22:09.769Z,0.00
2019-05-18T00:23:09.790Z,0.00
2019-05-18T00:24:09.761Z,0.00
2019-05-18T00:25:09.743Z,0.00
2019-05-18T00:26:09.724Z,0.00
2019-05-18T00:27:09.719Z,0.00
2019-05-18T00:28:09.703Z,0.00
2019-05-18T00:29:09.742Z,0.00
2019-05-18T00:30:09.701Z,0.00
2019-05-18T00:31:09.671Z,0.00
2019-05-18T00:32:09.669Z,0.00
2019-05-18T00:33:09.649Z,0.00
2019-05-18T00:34:09.641Z,0.00
2019-05-18T00:35:09.667Z,0.00
2019-05-18T00:36:09.636Z,0.00
2019-05-18T00:37:09.607Z,0.00
2019-05-18T00:38:09.597Z,0.00
2019-05-18T00:39:09.583Z,0.00
2019-05-18T00:40:09.573Z,0.00
2019-05-18T00:41:09.638Z,0.00
2019-05-18T00:42:09.574Z,0.00
2019-05-18T00:43:09.541Z,0.00
2019-05-18T00:44:09.530Z,0.00
2019-05-18T00:45:09.517Z,0.00
2019-05-18T00:46:09.505Z,0.00
2019-05-18T00:47:09.546Z,0.00
2019-05-18T00:48:09.498Z,0.00
2019-05-18T00:49:09.477Z,0.00
2019-05-18T00:50:09.463Z,0.00
2019-05-18T00:51:09.456Z,0.00
2019-05-18T00:52:09.446Z,0.00
2019-05-18T00:53:09.694Z,0.00
2019-05-18T00:54:09.468Z,0.00
2019-05-18T00:55:09.413Z,0.00
2019-05-18T00:56:09.401Z,0.00
2019-05-18T00:57:09.385Z,0.00
2019-05-18T00:58:09.382Z,0.00
2019-05-18T00:59:09.394Z,0.00
2019-05-18T01:00:09.373Z,0.00
2019-05-18T01:01:09.346Z,0.00
2019-05-18T01:02:09.335Z,0.00
2019-05-18T01:03:09.323Z,0.00
2019-05-18T01:04:09.309Z,0.00
2019-05-18T01:05:09.493Z,0.00
2019-05-18T01:06:09.306Z,0.00
2019-05-18T01:07:09.276Z,0.00
2019-05-18T01:08:09.272Z,0.00
2019-05-18T01:09:09.257Z,0.00
2019-05-18T01:10:09.263Z,0.00
2019-05-18T01:11:09.283Z,0.00
2019-05-18T01:12:09.240Z,0.00
2019-05-18T01:13:09.209Z,0.00
2019-05-18T01:14:09.199Z,0.00
2019-05-18T01:15:09.196Z,0.00
2019-05-18T01:16:09.180Z,0.00
2019-05-18T01:17:09.215Z,0.00
2019-05-18T01:18:09.168Z,0.00
2019-05-18T01:19:09.153Z,0.00
2019-05-18T01:20:09.134Z,0.00
2019-05-18T01:21:09.123Z,0.00
2019-05-18T01:22:09.112Z,0.00
2019-05-18T01:23:09.135Z,0.00
2019-05-18T01:24:09.105Z,0.00
2019-05-18T01:25:09.085Z,0.00
2019-05-18T01:26:09.073Z,0.00
2019-05-18T01:27:09.056Z,0.00
2019-05-18T01:28:09.044Z,0.00
2019-05-18T01:29:09.083Z,0.00
2019-05-18T01:30:09.036Z,0.00
2019-05-18T01:31:09.021Z,0.00
2019-05-18T01:32:09.006Z,0.00
2019-05-18T01:33:09.043Z,0.00
2019-05-18T01:34:08.981Z,0.00
2019-05-18T01:35:09.008Z,0.00
2019-05-18T01:36:08.968Z,0.00
2019-05-18T01:37:08.948Z,0.00
2019-05-18T01:38:08.936Z,0.00
2019-05-18T01:39:08.927Z,0.00
2019-05-18T01:40:08.912Z,0.00
2019-05-18T01:41:08.957Z,0.00
2019-05-18T01:42:08.902Z,0.00
2019-05-18T01:43:08.881Z,0.00
2019-05-18T01:44:08.870Z,0.00
2019-05-18T01:45:17.003Z,0.00
2019-05-18T01:46:09.883Z,0.00
2019-05-18T01:47:08.840Z,0.00
2019-05-18T01:48:14.207Z,0.00
2019-05-18T01:49:09.816Z,0.00
2019-05-18T01:50:08.805Z,0.00
2019-05-18T01:51:08.797Z,0.00
2019-05-18T01:52:08.820Z,0.00
2019-05-18T01:53:08.770Z,0.00
2019-05-18T01:54:08.772Z,0.00
2019-05-18T01:55:08.751Z,0.00
2019-05-18T01:56:08.739Z,0.00
2019-05-18T01:57:08.727Z,0.00
2019-05-18T01:58:08.752Z,0.00
2019-05-18T01:59:08.708Z,0.00
2019-05-18T02:00:08.710Z,0.00
2019-05-18T02:01:08.686Z,0.00
2019-05-18T02:02:08.672Z,0.00
2019-05-18T02:03:08.661Z,0.00
2019-05-18T02:04:08.691Z,0.00
2019-05-18T02:05:08.650Z,0.00
2019-05-18T02:06:08.641Z,0.00
2019-05-18T02:07:08.627Z,0.00
2019-05-18T02:08:08.607Z,0.00
2019-05-18T02:09:08.599Z,0.00
2019-05-18T02:10:08.623Z,0.00
2019-05-18T02:11:08.574Z,0.00
2019-05-18T02:12:08.579Z,0.00
2019-05-18T02:13:08.558Z,0.00
2019-05-18T02:14:08.540Z,0.00
2019-05-18T02:15:08.533Z,0.00
2019-05-18T02:16:08.570Z,0.00
2019-05-18T02:17:08.512Z,0.00
2019-05-18T02:18:08.519Z,0.00
2019-05-18T02:19:08.495Z,0.00
2019-05-18T02:20:08.474Z,0.00
2019-05-18T02:21:08.466Z,0.00
2019-05-18T02:22:08.483Z,0.00
2019-05-18T02:23:08.440Z,0.00
2019-05-18T02:24:08.469Z,0.00
2019-05-18T02:25:08.422Z,0.00
2019-05-18T02:26:08.407Z,0.00
2019-05-18T02:27:08.410Z,0.00
2019-05-18T02:28:08.441Z,0.00
2019-05-18T02:29:08.376Z,0.00
2019-05-18T02:30:08.412Z,0.00
2019-05-18T02:31:08.355Z,0.00
2019-05-18T02:32:08.342Z,0.00
2019-05-18T02:33:08.331Z,0.00
2019-05-18T02:34:08.473Z,0.00
2019-05-18T02:35:08.317Z,0.00
2019-05-18T02:36:08.327Z,0.00
2019-05-18T02:37:08.297Z,0.00
2019-05-18T02:38:08.279Z,0.00
2019-05-18T02:39:08.270Z,0.00
2019-05-18T02:40:08.414Z,0.00
2019-05-18T02:41:08.246Z,0.00
2019-05-18T02:42:08.251Z,0.00
2019-05-18T02:43:08.226Z,0.00
2019-05-18T02:44:08.214Z,0.00
2019-05-18T02:45:08.203Z,0.00
2019-05-18T02:46:08.234Z,0.00
2019-05-18T02:47:08.181Z,0.00
2019-05-18T02:48:08.181Z,0.00
2019-05-18T02:49:08.155Z,0.00
2019-05-18T02:50:08.149Z,0.00
2019-05-18T02:51:11.413Z,0.00
2019-05-18T02:52:08.246Z,0.00
2019-05-18T02:53:08.115Z,0.00
2019-05-18T02:54:08.120Z,0.00
2019-05-18T02:55:08.093Z,0.00
2019-05-18T02:56:08.080Z,0.00
2019-05-18T02:57:08.076Z,0.00
2019-05-18T02:58:08.092Z,0.00
2019-05-18T02:59:08.046Z,0.00
2019-05-18T03:00:08.053Z,0.00
2019-05-18T03:01:08.025Z,0.00
2019-05-18T03:02:08.019Z,0.00
2019-05-18T03:03:08.005Z,0.00
2019-05-18T03:04:08.041Z,0.00
2019-05-18T03:05:07.987Z,0.00
2019-05-18T03:06:07.976Z,0.00
2019-05-18T03:07:07.963Z,0.00
2019-05-18T03:08:07.949Z,0.00
2019-05-18T03:09:07.944Z,0.00
2019-05-18T03:10:08.125Z,0.00
2019-05-18T03:11:07.917Z,4.00
2019-05-18T03:12:07.922Z,4.00
2019-05-18T03:13:07.892Z,0.00
2019-05-18T03:14:07.962Z,0.00
2019-05-18T03:15:07.881Z,4.00
2019-05-18T03:16:07.901Z,4.00
2019-05-18T03:17:07.882Z,4.00
2019-05-18T03:18:07.863Z,4.00
2019-05-18T03:19:09.180Z,8.00
2019-05-18T03:20:07.825Z,4.00
2019-05-18T03:21:07.813Z,8.00
2019-05-18T03:22:07.837Z,4.00
2019-05-18T03:23:07.783Z,8.00
2019-05-18T03:24:07.781Z,4.00
2019-05-18T03:25:07.764Z,8.00
2019-05-18T03:26:07.749Z,8.00
2019-05-18T03:27:07.739Z,12.00
2019-05-18T03:28:07.764Z,12.00
2019-05-18T03:29:07.783Z,16.00
2019-05-18T03:30:07.727Z,20.00
2019-05-18T03:31:07.868Z,20.00
2019-05-18T03:32:07.685Z,28.00
2019-05-18T03:33:07.677Z,32.00
2019-05-18T03:34:07.726Z,40.00
2019-05-18T03:35:07.660Z,48.00
2019-05-18T03:36:07.655Z,56.00
2019-05-18T03:37:07.627Z,68.00
2019-05-18T03:38:07.622Z,76.00
2019-05-18T03:39:07.607Z,88.00
2019-05-18T03:40:07.787Z,96.00
2019-05-18T03:41:07.585Z,112.00
2019-05-18T03:42:07.601Z,128.00
2019-05-18T03:43:07.562Z,148.00
2019-05-18T03:44:07.551Z,168.00
2019-05-18T03:45:07.547Z,188.00
2019-05-18T03:46:07.563Z,208.00
2019-05-18T03:47:07.516Z,224.00
2019-05-18T03:48:07.524Z,236.00
2019-05-18T03:49:23.654Z,256.00
2019-05-18T03:50:08.484Z,276.00
2019-05-18T03:51:07.474Z,296.00
2019-05-18T03:52:07.491Z,316.00
2019-05-18T03:53:07.453Z,336.00
2019-05-18T03:54:07.450Z,352.00
2019-05-18T03:55:07.431Z,368.00
2019-05-18T03:56:07.420Z,388.00
2019-05-18T03:57:07.409Z,408.00
2019-05-18T03:58:07.449Z,428.00
2019-05-18T03:59:07.391Z,456.00
2019-05-18T04:00:07.397Z,476.00
2019-05-18T04:01:07.363Z,496.00
2019-05-18T04:02:07.352Z,520.00
2019-05-18T04:03:07.343Z,536.00
2019-05-18T04:04:07.384Z,556.00
2019-05-18T04:05:07.339Z,580.00
2019-05-18T04:06:07.319Z,604.00
2019-05-18T04:07:07.300Z,644.00
2019-05-18T04:08:07.289Z,688.00
2019-05-18T04:09:07.293Z,752.00
2019-05-18T04:10:07.297Z,832.00
2019-05-18T04:11:07.256Z,904.00
2019-05-18T04:12:07.264Z,968.00
2019-05-18T04:13:07.233Z,1040.00
2019-05-18T04:14:08.323Z,1096.00
2019-05-18T04:15:07.216Z,1160.00
2019-05-18T04:16:07.236Z,1228.00
2019-05-18T04:17:07.193Z,1296.00
2019-05-18T04:18:07.197Z,1356.00
2019-05-18T04:19:07.166Z,1420.00
2019-05-18T04:20:07.159Z,1472.00
2019-05-18T04:21:07.148Z,1528.00
2019-05-18T04:22:07.181Z,1596.00
2019-05-18T04:23:07.124Z,1668.00
2019-05-18T04:24:07.132Z,1748.00
2019-05-18T04:25:07.131Z,1832.00
2019-05-18T04:26:07.098Z,1916.00
2019-05-18T04:27:07.078Z,1996.00
2019-05-18T04:28:07.095Z,2076.00
2019-05-18T04:29:07.056Z,2156.00
2019-05-18T04:30:07.061Z,2224.00
2019-05-18T04:31:07.053Z,2304.00
2019-05-18T04:32:07.034Z,2388.00
2019-05-18T04:33:07.015Z,2468.00
2019-05-18T04:34:07.116Z,2556.00
2019-05-18T04:35:06.991Z,2628.00
2019-05-18T04:36:06.999Z,2680.00
2019-05-18T04:37:06.974Z,2720.00
2019-05-18T04:38:06.965Z,2780.00
2019-05-18T04:39:06.949Z,2856.00
2019-05-18T04:40:06.971Z,2948.00
2019-05-18T04:41:06.930Z,3052.00
2019-05-18T04:42:06.934Z,3152.00
2019-05-18T04:43:06.902Z,3248.00
2019-05-18T04:44:06.892Z,3332.00
2019-05-18T04:45:06.903Z,3384.00
2019-05-18T04:46:06.911Z,3440.00
2019-05-18T04:47:06.865Z,3484.00
2019-05-18T04:48:06.861Z,3532.00
2019-05-18T04:49:06.838Z,3600.00
2019-05-18T04:50:06.827Z,3628.00
2019-05-18T04:51:06.818Z,3640.00
2019-05-18T04:52:06.849Z,3640.00
2019-05-18T04:53:06.798Z,3668.00
2019-05-18T04:54:06.802Z,3732.00
2019-05-18T04:55:06.785Z,3740.00
2019-05-18T04:56:06.761Z,3728.00
2019-05-18T04:57:06.751Z,3780.00
2019-05-18T04:58:06.771Z,3764.00
2019-05-18T04:59:06.733Z,3764.00
2019-05-18T05:00:06.719Z,3756.00
2019-05-18T05:01:06.713Z,3736.00
2019-05-18T05:02:06.736Z,3724.00
2019-05-18T05:03:06.685Z,3740.00
2019-05-18T05:04:06.713Z,3784.00
2019-05-18T05:05:06.663Z,3776.00
2019-05-18T05:06:06.654Z,3844.00
2019-05-18T05:07:06.642Z,3896.00
2019-05-18T05:08:06.644Z,3828.00
2019-05-18T05:09:06.625Z,3784.00
2019-05-18T05:10:06.648Z,3856.00
2019-05-18T05:11:06.596Z,3936.00
2019-05-18T05:12:06.590Z,4028.00
2019-05-18T05:13:06.578Z,4140.00
2019-05-18T05:14:06.570Z,4152.00
2019-05-18T05:15:06.557Z,4248.00
2019-05-18T05:16:06.575Z,4316.00
2019-05-18T05:17:06.534Z,4356.00
2019-05-18T05:18:06.522Z,4436.00
2019-05-18T05:19:08.664Z,4480.00
2019-05-18T05:20:18.773Z,4468.00
2019-05-18T05:21:07.529Z,4460.00
2019-05-18T05:22:06.478Z,4436.00
2019-05-18T05:23:06.471Z,4348.00
2019-05-18T05:24:06.456Z,4296.00
2019-05-18T05:25:06.448Z,4284.00
2019-05-18T05:26:06.448Z,4304.00
2019-05-18T05:27:06.476Z,4296.00
2019-05-18T05:28:06.414Z,4320.00
2019-05-18T05:29:06.407Z,4484.00
2019-05-18T05:30:06.393Z,4692.00
2019-05-18T05:31:06.384Z,4960.00
2019-05-18T05:32:06.393Z,5356.00
2019-05-18T05:33:06.405Z,5648.00
2019-05-18T05:34:06.351Z,5920.00
2019-05-18T05:35:06.342Z,6136.00
2019-05-18T05:36:06.334Z,6252.00
2019-05-18T05:37:06.322Z,6320.00
2019-05-18T05:38:06.312Z,6392.00
2019-05-18T05:39:06.357Z,6496.00
2019-05-18T05:40:06.310Z,6528.00
2019-05-18T05:41:06.276Z,6588.00
2019-05-18T05:42:06.263Z,6712.00
2019-05-18T05:43:06.252Z,6856.00
2019-05-18T05:44:06.244Z,6908.00
2019-05-18T05:45:06.306Z,6936.00
2019-05-18T05:46:06.219Z,6988.00
2019-05-18T05:47:06.210Z,7052.00
2019-05-18T05:48:06.201Z,7144.00
2019-05-18T05:49:06.189Z,7244.00
2019-05-18T05:50:06.182Z,7412.00
2019-05-18T05:51:06.199Z,7620.00
2019-05-18T05:52:06.169Z,7892.00
2019-05-18T05:53:06.144Z,8152.00
2019-05-18T05:54:06.136Z,8480.00
2019-05-18T05:55:06.142Z,8780.00
2019-05-18T05:56:06.111Z,9032.00
2019-05-18T05:57:06.135Z,9252.00
2019-05-18T05:58:06.105Z,9488.00
2019-05-18T05:59:06.081Z,9720.00
2019-05-18T06:00:06.070Z,9908.00
2019-05-18T06:01:06.059Z,10020.00
2019-05-18T06:02:06.047Z,10048.00
2019-05-18T06:03:06.090Z,10104.00
2019-05-18T06:04:06.039Z,10188.00
2019-05-18T06:05:06.012Z,10284.00
2019-05-18T06:06:05.998Z,10352.00
2019-05-18T06:07:05.988Z,10348.00
2019-05-18T06:08:06.010Z,10252.00
2019-05-18T06:09:06.016Z,10072.00
2019-05-18T06:10:05.971Z,9980.00
2019-05-18T06:11:05.960Z,9976.00
2019-05-18T06:12:05.935Z,9696.00
2019-05-18T06:13:05.923Z,9624.00
2019-05-18T06:14:05.916Z,9560.00
2019-05-18T06:15:05.951Z,9748.00
2019-05-18T06:16:05.898Z,9524.00
2019-05-18T06:17:08.421Z,9600.00
2019-05-18T06:18:05.866Z,9740.00
2019-05-18T06:19:05.859Z,9832.00
2019-05-18T06:20:05.846Z,9928.00
2019-05-18T06:21:05.866Z,10548.00
2019-05-18T06:22:05.825Z,10884.00
2019-05-18T06:23:05.845Z,10712.00
2019-05-18T06:24:05.862Z,10952.00
2019-05-18T06:25:05.843Z,10976.00
2019-05-18T06:26:05.801Z,11044.00
2019-05-18T06:27:05.824Z,11192.00
2019-05-18T06:28:05.760Z,10744.00
2019-05-18T06:29:05.769Z,10840.00
2019-05-18T06:30:05.729Z,11372.00
2019-05-18T06:31:05.718Z,11532.00
2019-05-18T06:32:05.718Z,10816.00
2019-05-18T06:33:05.749Z,10760.00
2019-05-18T06:34:05.716Z,10904.00
2019-05-18T06:35:05.784Z,10976.00
2019-05-18T06:36:05.717Z,11176.00
2019-05-18T06:37:05.661Z,11232.00
2019-05-18T06:38:05.654Z,11264.00
2019-05-18T06:39:05.690Z,11360.00
2019-05-18T06:40:05.627Z,11604.00
2019-05-18T06:41:05.639Z,11880.00
2019-05-18T06:42:05.602Z,12080.00
2019-05-18T06:43:05.627Z,12228.00
2019-05-18T06:44:05.592Z,12316.00
2019-05-18T06:45:05.630Z,12424.00
2019-05-18T06:46:05.562Z,12516.00
2019-05-18T06:47:05.570Z,12596.00
2019-05-18T06:48:05.548Z,12596.00
2019-05-18T06:49:05.525Z,12556.00
2019-05-18T06:50:05.532Z,12500.00
2019-05-18T06:51:07.485Z,12392.00
2019-05-18T06:52:05.503Z,12344.00
2019-05-18T06:53:05.482Z,12268.00
2019-05-18T06:54:05.472Z,12252.00
2019-05-18T06:55:05.479Z,12220.00
2019-05-18T06:56:05.447Z,12340.00
2019-05-18T06:57:05.571Z,12424.00
2019-05-18T06:58:05.502Z,12340.00
2019-05-18T06:59:05.431Z,12508.00
2019-05-18T07:00:05.460Z,12656.00
2019-05-18T07:01:05.400Z,12684.00
2019-05-18T07:02:05.443Z,12784.00
2019-05-18T07:03:05.441Z,12996.00
2019-05-18T07:04:05.383Z,13176.00
2019-05-18T07:05:05.362Z,13416.00
2019-05-18T07:06:05.342Z,13588.00
2019-05-18T07:07:05.341Z,13476.00
2019-05-18T07:08:05.315Z,13328.00
2019-05-18T07:09:05.357Z,13228.00
2019-05-18T07:10:05.309Z,13152.00
2019-05-18T07:11:05.288Z,13100.00
2019-05-18T07:12:05.270Z,13212.00
2019-05-18T07:13:05.265Z,13364.00
2019-05-18T07:14:05.262Z,13604.00
2019-05-18T07:15:05.296Z,13872.00
2019-05-18T07:16:05.234Z,14276.00
2019-05-18T07:17:05.230Z,14688.00
2019-05-18T07:18:05.205Z,15104.00
2019-05-18T07:19:05.210Z,14936.00
2019-05-18T07:20:05.199Z,15220.00
2019-05-18T07:21:05.234Z,15416.00
2019-05-18T07:22:05.203Z,14960.00
2019-05-18T07:23:05.163Z,14260.00
2019-05-18T07:24:05.172Z,13780.00
2019-05-18T07:25:05.205Z,13620.00
2019-05-18T07:26:05.120Z,13528.00
2019-05-18T07:27:05.168Z,13500.00
2019-05-18T07:28:05.348Z,12436.00
2019-05-18T07:29:05.885Z,12356.00
2019-05-18T07:30:05.099Z,12932.00
2019-05-18T07:31:05.084Z,14080.00
2019-05-18T07:32:05.087Z,15084.00
2019-05-18T07:33:05.134Z,17600.00
2019-05-18T07:34:05.218Z,18848.00
2019-05-18T07:35:05.040Z,18912.00
2019-05-18T07:36:05.069Z,18432.00
2019-05-18T07:37:05.074Z,19008.00
2019-05-18T07:38:05.036Z,19456.00
2019-05-18T07:39:05.160Z,19616.00
2019-05-18T07:40:04.991Z,19488.00
2019-05-18T07:41:05.049Z,19136.00
2019-05-18T07:42:05.048Z,18656.00
2019-05-18T07:43:05.022Z,18080.00
2019-05-18T07:44:04.919Z,17504.00
2019-05-18T07:45:05.083Z,16896.00
2019-05-18T07:46:04.912Z,16256.00
2019-05-18T07:47:04.903Z,15828.00
2019-05-18T07:48:04.878Z,15416.00
2019-05-18T07:49:04.865Z,14960.00
2019-05-18T07:50:04.881Z,14520.00
2019-05-18T07:51:04.895Z,14128.00
2019-05-18T07:52:04.840Z,13680.00
2019-05-18T07:53:04.825Z,13140.00
2019-05-18T07:54:04.820Z,12524.00
2019-05-18T07:55:04.916Z,11896.00
2019-05-18T07:56:04.828Z,11336.00
2019-05-18T07:57:04.946Z,10924.00
2019-05-18T07:58:04.783Z,10644.00
2019-05-18T07:59:04.756Z,10432.00
2019-05-18T08:00:04.749Z,10244.00
2019-05-18T08:01:04.838Z,10028.00
2019-05-18T08:02:04.777Z,9796.00
2019-05-18T08:03:04.804Z,9596.00
2019-05-18T08:04:04.711Z,9488.00
2019-05-18T08:05:04.719Z,9480.00
2019-05-18T08:06:04.680Z,9556.00
2019-05-18T08:07:04.688Z,9716.00
2019-05-18T08:08:04.670Z,10000.00
2019-05-18T08:09:04.691Z,10324.00
2019-05-18T08:10:04.641Z,10676.00
2019-05-18T08:11:04.629Z,11352.00
2019-05-18T08:12:04.612Z,11920.00
2019-05-18T08:13:04.602Z,12420.00
2019-05-18T08:14:04.598Z,11984.00
2019-05-18T08:15:04.612Z,12056.00
2019-05-18T08:16:04.571Z,12008.00
2019-05-18T08:17:04.556Z,12112.00
2019-05-18T08:18:04.544Z,12340.00
2019-05-18T08:19:04.536Z,12624.00
2019-05-18T08:20:04.523Z,12832.00
2019-05-18T08:21:04.624Z,12988.00
2019-05-18T08:22:04.512Z,13064.00
2019-05-18T08:23:04.519Z,13412.00
2019-05-18T08:24:04.527Z,13804.00
2019-05-18T08:25:04.475Z,14260.00
2019-05-18T08:26:04.466Z,14940.00
2019-05-18T08:27:04.479Z,16128.00
2019-05-18T08:28:04.439Z,17216.00
2019-05-18T08:29:04.423Z,17696.00
2019-05-18T08:30:04.421Z,18720.00
2019-05-18T08:31:04.430Z,19840.00
2019-05-18T08:32:04.391Z,20544.00
2019-05-18T08:33:04.440Z,21088.00
2019-05-18T08:34:04.369Z,21664.00
2019-05-18T08:35:04.365Z,22240.00
2019-05-18T08:36:04.371Z,22464.00
2019-05-18T08:37:04.339Z,23008.00
2019-05-18T08:38:04.330Z,23552.00
2019-05-18T08:39:04.376Z,24288.00
2019-05-18T08:40:04.307Z,24352.00
2019-05-18T08:41:04.299Z,24832.00
2019-05-18T08:42:04.405Z,26016.00
2019-05-18T08:43:04.277Z,25280.00
2019-05-18T08:44:04.264Z,25536.00
2019-05-18T08:45:04.306Z,26208.00
2019-05-18T08:46:04.241Z,25952.00
2019-05-18T08:47:04.229Z,25760.00
2019-05-18T08:48:04.256Z,25536.00
2019-05-18T08:49:04.212Z,25216.00
2019-05-18T08:50:04.204Z,24896.00
2019-05-18T08:51:04.238Z,24544.00
2019-05-18T08:52:08.204Z,24320.00
2019-05-18T08:53:04.186Z,24128.00
2019-05-18T08:54:04.163Z,24096.00
2019-05-18T08:55:04.144Z,24224.00
2019-05-18T08:56:04.137Z,24448.00
2019-05-18T08:57:04.158Z,24448.00
2019-05-18T08:58:04.132Z,24352.00
2019-05-18T08:59:04.096Z,24288.00
2019-05-18T09:00:04.085Z,24160.00
2019-05-18T09:01:04.096Z,24064.00
2019-05-18T09:02:04.068Z,24128.00
2019-05-18T09:03:04.096Z,24256.00
2019-05-18T09:04:04.059Z,24416.00
2019-05-18T09:05:04.968Z,24608.00
2019-05-18T09:06:04.020Z,24960.00
2019-05-18T09:07:04.047Z,25312.00
2019-05-18T09:08:04.176Z,25600.00
2019-05-18T09:09:04.027Z,25888.00
2019-05-18T09:10:03.977Z,26016.00
2019-05-18T09:11:03.997Z,26048.00
2019-05-18T09:12:04.011Z,26112.00
2019-05-18T09:13:03.944Z,26080.00
2019-05-18T09:14:03.930Z,26144.00
2019-05-18T09:15:03.999Z,26112.00
2019-05-18T09:16:03.908Z,25984.00
2019-05-18T09:17:03.895Z,25760.00
2019-05-18T09:18:04.998Z,25728.00
2019-05-18T09:19:03.875Z,25632.00
2019-05-18T09:20:03.879Z,25568.00
2019-05-18T09:21:03.896Z,26304.00
2019-05-18T09:22:03.859Z,25952.00
2019-05-18T09:23:03.833Z,26016.00
2019-05-18T09:24:03.830Z,26112.00
2019-05-18T09:25:03.865Z,26112.00
2019-05-18T09:26:03.801Z,26336.00
2019-05-18T09:27:03.849Z,27040.00
2019-05-18T09:28:03.787Z,26848.00
2019-05-18T09:29:03.801Z,26880.00
2019-05-18T09:30:03.827Z,26432.00
2019-05-18T09:31:03.757Z,25760.00
2019-05-18T09:32:04.150Z,25152.00
2019-05-18T09:33:03.766Z,24672.00
2019-05-18T09:34:03.737Z,24224.00
2019-05-18T09:35:03.739Z,23808.00
2019-05-18T09:36:03.918Z,23200.00
2019-05-18T09:37:03.682Z,22656.00
2019-05-18T09:38:03.671Z,22304.00
2019-05-18T09:39:03.707Z,22016.00
2019-05-18T09:40:03.802Z,21792.00
2019-05-18T09:41:03.678Z,21664.00
2019-05-18T09:42:03.650Z,22112.00
2019-05-18T09:43:03.637Z,21440.00
2019-05-18T09:44:03.635Z,21248.00
2019-05-18T09:45:03.631Z,21024.00
2019-05-18T09:46:03.802Z,20704.00
2019-05-18T09:47:03.679Z,20480.00
2019-05-18T09:48:03.631Z,20512.00
2019-05-18T09:49:03.560Z,20576.00
2019-05-18T09:50:03.554Z,20832.00
2019-05-18T09:51:03.588Z,21184.00
2019-05-18T09:52:03.588Z,21504.00
2019-05-18T09:53:03.622Z,21888.00
2019-05-18T09:54:03.507Z,22400.00
2019-05-18T09:55:03.497Z,23104.00
2019-05-18T09:56:03.510Z,23840.00
2019-05-18T09:57:03.505Z,24256.00
2019-05-18T09:58:03.489Z,24544.00
2019-05-18T09:59:03.454Z,24480.00
2019-05-18T10:00:03.437Z,23936.00
2019-05-18T10:01:03.427Z,23008.00
2019-05-18T10:02:03.438Z,22016.00
2019-05-18T10:03:03.487Z,21088.00
2019-05-18T10:04:03.403Z,20320.00
2019-05-18T10:05:03.525Z,19744.00
2019-05-18T10:06:03.483Z,19552.00
2019-05-18T10:07:03.434Z,19776.00
2019-05-18T10:08:03.393Z,20320.00
2019-05-18T10:09:03.392Z,20864.00
2019-05-18T10:10:03.368Z,21344.00
2019-05-18T10:11:03.330Z,21600.00
2019-05-18T10:12:03.313Z,21632.00
2019-05-18T10:13:03.310Z,21664.00
2019-05-18T10:14:03.313Z,21792.00
2019-05-18T10:15:03.375Z,21920.00
2019-05-18T10:16:03.276Z,21856.00
2019-05-18T10:17:03.261Z,21568.00
2019-05-18T10:18:03.257Z,21536.00
2019-05-18T10:19:03.251Z,21728.00
2019-05-18T10:20:03.273Z,21984.00
2019-05-18T10:21:03.297Z,22176.00
2019-05-18T10:22:03.201Z,22080.00
2019-05-18T10:23:12.428Z,21504.00
2019-05-18T10:24:04.188Z,21120.00
2019-05-18T10:25:03.173Z,21120.00
2019-05-18T10:26:03.165Z,21376.00
2019-05-18T10:27:03.183Z,21440.00
2019-05-18T10:28:03.142Z,21536.00
2019-05-18T10:29:03.145Z,21728.00
2019-05-18T10:30:03.120Z,21792.00
2019-05-18T10:31:03.117Z,22048.00
2019-05-18T10:32:03.099Z,22272.00
2019-05-18T10:33:03.125Z,22304.00
2019-05-18T10:34:03.074Z,22112.00
2019-05-18T10:35:03.083Z,21920.00
2019-05-18T10:36:03.051Z,21792.00
2019-05-18T10:37:03.043Z,21696.00
2019-05-18T10:38:03.055Z,21568.00
2019-05-18T10:39:03.193Z,21536.00
2019-05-18T10:40:03.012Z,21376.00
2019-05-18T10:41:03.010Z,21152.00
2019-05-18T10:42:02.982Z,20896.00
2019-05-18T10:43:02.994Z,20384.00
2019-05-18T10:44:03.187Z,19584.00
2019-05-18T10:45:02.988Z,18848.00
2019-05-18T10:46:02.948Z,17888.00
2019-05-18T10:47:02.937Z,16960.00
2019-05-18T10:48:03.023Z,16000.00
2019-05-18T10:49:02.915Z,15384.00
2019-05-18T10:50:02.920Z,14984.00
2019-05-18T10:51:05.510Z,14784.00
2019-05-18T10:52:02.886Z,14788.00
2019-05-18T10:53:03.058Z,14876.00
2019-05-18T10:54:02.877Z,14936.00
2019-05-18T10:55:02.847Z,14996.00
2019-05-18T10:56:02.977Z,15028.00
2019-05-18T10:57:02.858Z,15016.00
2019-05-18T10:58:02.814Z,14924.00
2019-05-18T10:59:02.835Z,14692.00
2019-05-18T11:00:02.830Z,14512.00
2019-05-18T11:01:02.801Z,14500.00
2019-05-18T11:02:02.774Z,14516.00
2019-05-18T11:03:02.865Z,14600.00
2019-05-18T11:04:02.769Z,14544.00
2019-05-18T11:05:02.736Z,14576.00
2019-05-18T11:06:02.727Z,14612.00
2019-05-18T11:07:02.719Z,14688.00
2019-05-18T11:08:02.723Z,14732.00
2019-05-18T11:09:02.752Z,14816.00
2019-05-18T11:10:02.707Z,14936.00
2019-05-18T11:11:02.741Z,15140.00
2019-05-18T11:12:02.664Z,15400.00
2019-05-18T11:13:02.653Z,15772.00
2019-05-18T11:14:02.668Z,16352.00
2019-05-18T11:15:02.665Z,17088.00
2019-05-18T11:16:02.633Z,18176.00
2019-05-18T11:17:02.611Z,18976.00
2019-05-18T11:18:02.618Z,19552.00
2019-05-18T11:19:02.586Z,19648.00
2019-05-18T11:20:02.594Z,19520.00
2019-05-18T11:21:02.589Z,19104.00
2019-05-18T11:22:02.555Z,18560.00
2019-05-18T11:23:02.539Z,17984.00
2019-05-18T11:24:02.523Z,17408.00
2019-05-18T11:25:02.512Z,17088.00
2019-05-18T11:26:02.517Z,17344.00
2019-05-18T11:27:02.707Z,17984.00
2019-05-18T11:28:02.503Z,18720.00
2019-05-18T11:29:02.493Z,19200.00
2019-05-18T11:30:02.770Z,19232.00
2019-05-18T11:31:02.451Z,18944.00
2019-05-18T11:32:02.459Z,18240.00
2019-05-18T11:33:02.475Z,17440.00
2019-05-18T11:34:02.413Z,16768.00
2019-05-18T11:35:02.407Z,16072.00
2019-05-18T11:36:02.417Z,15544.00
2019-05-18T11:37:03.176Z,15040.00
2019-05-18T11:38:02.387Z,14504.00
2019-05-18T11:39:02.397Z,13932.00
2019-05-18T11:40:02.368Z,13308.00
2019-05-18T11:41:02.335Z,12648.00
2019-05-18T11:42:02.333Z,12032.00
2019-05-18T11:43:02.373Z,11540.00
2019-05-18T11:44:02.307Z,11212.00
2019-05-18T11:45:02.336Z,11024.00
2019-05-18T11:46:02.382Z,10924.00
2019-05-18T11:47:02.275Z,10860.00
2019-05-18T11:48:02.275Z,10772.00
2019-05-18T11:49:02.296Z,10660.00
2019-05-18T11:50:02.248Z,10512.00
2019-05-18T11:51:02.397Z,10348.00
2019-05-18T11:52:02.222Z,10256.00
2019-05-18T11:53:02.306Z,10256.00
2019-05-18T11:54:02.250Z,10396.00
2019-05-18T11:55:02.370Z,10660.00
2019-05-18T11:56:02.179Z,10996.00
2019-05-18T11:57:02.225Z,11448.00
2019-05-18T11:58:02.159Z,12196.00
2019-05-18T11:59:02.153Z,13056.00
2019-05-18T12:00:02.269Z,14044.00
2019-05-18T12:01:02.119Z,15240.00
2019-05-18T12:02:02.177Z,16672.00
2019-05-18T12:03:02.161Z,17920.00
2019-05-18T12:04:02.103Z,19232.00
2019-05-18T12:05:02.075Z,20256.00
2019-05-18T12:06:02.081Z,20896.00
2019-05-18T12:07:02.070Z,21472.00
2019-05-18T12:08:02.037Z,21760.00
2019-05-18T12:09:02.082Z,22016.00
2019-05-18T12:10:02.024Z,21888.00
2019-05-18T12:11:02.005Z,22080.00
2019-05-18T12:12:02.007Z,22112.00
2019-05-18T12:13:01.985Z,22240.00
2019-05-18T12:14:02.017Z,22272.00
2019-05-18T12:15:02.125Z,22272.00